sensor_id;sensor_type;location;lat;lon;timestamp;pressure;altitude;pressure_sealevel;temperature;humidity
28448;BME280;15675;52.870;-1.416;2023-02-16T00:01:53;101469.09;;;8.29;100.00
28448;BME280;15675;52.870;-1.416;2023-02-16T00:04:29;101460.69;;;8.38;100.00
28448;BME280;15675;52.870;-1.416;2023-02-16T00:06:56;101458.28;;;8.44;100.00
28448;BME280;15675;52.870;-1.416;2023-02-16T00:09:22;101454.28;;;8.24;100.00
28448;BME280;15675;52.870;-1.416;2023-02-16T00:11:49;101456.00;;;8.23;100.00
28448;BME280;15675;52.870;-1.416;2023-02-16T00:14:36;101452.88;;;8.37;100.00
28448;BME280;15675;52.870;-1.416;2023-02-16T00:17:02;101451.47;;;8.48;100.00
28448;BME280;15675;52.870;-1.416;2023-02-16T00:19:36;101450.03;;;8.26;100.00
28448;BME280;15675;52.870;-1.416;2023-02-16T00:22:04;101446.28;;;8.15;100.00
28448;BME280;15675;52.870;-1.416;2023-02-16T00:24:31;101443.94;;;7.90;100.00
28448;BME280;15675;52.870;-1.416;2023-02-16T00:26:57;101433.97;;;8.04;100.00
28448;BME280;15675;52.870;-1.416;2023-02-16T00:29:24;101437.03;;;7.89;100.00
28448;BME280;15675;52.870;-1.416;2023-02-16T00:31:51;101439.59;;;7.89;100.00
28448;BME280;15675;52.870;-1.416;2023-02-16T00:34:36;101437.31;;;8.00;100.00
28448;BME280;15675;52.870;-1.416;2023-02-16T00:37:07;101428.56;;;7.95;100.00
28448;BME280;15675;52.870;-1.416;2023-02-16T00:39:34;101428.41;;;7.89;100.00
28448;BME280;15675;52.870;-1.416;2023-02-16T00:44:42;101419.19;;;7.99;100.00
28448;BME280;15675;52.870;-1.416;2023-02-16T00:47:35;101411.38;;;7.97;100.00
28448;BME280;15675;52.870;-1.416;2023-02-16T00:50:05;101414.91;;;8.01;100.00
28448;BME280;15675;52.870;-1.416;2023-02-16T00:52:37;101416.22;;;8.18;100.00
28448;BME280;15675;52.870;-1.416;2023-02-16T00:57:37;101390.38;;;8.55;100.00
28448;BME280;15675;52.870;-1.416;2023-02-16T01:02:40;101389.78;;;8.67;100.00
28448;BME280;15675;52.870;-1.416;2023-02-16T01:05:06;101381.38;;;8.77;100.00
28448;BME280;15675;52.870;-1.416;2023-02-16T01:07:32;101381.38;;;8.77;100.00
28448;BME280;15675;52.870;-1.416;2023-02-16T01:10:19;101380.59;;;8.81;100.00
28448;BME280;15675;52.870;-1.416;2023-02-16T01:13:04;101378.53;;;8.66;100.00
28448;BME280;15675;52.870;-1.416;2023-02-16T01:15:29;101380.25;;;8.66;100.00
28448;BME280;15675;52.870;-1.416;2023-02-16T01:17:55;101372.13;;;8.49;100.00
28448;BME280;15675;52.870;-1.416;2023-02-16T01:20:24;101377.16;;;8.44;100.00
28448;BME280;15675;52.870;-1.416;2023-02-16T01:22:50;101377.25;;;8.47;100.00
28448;BME280;15675;52.870;-1.416;2023-02-16T01:25:16;101371.19;;;8.10;100.00
28448;BME280;15675;52.870;-1.416;2023-02-16T01:27:42;101381.16;;;8.29;100.00
28448;BME280;15675;52.870;-1.416;2023-02-16T01:30:15;101372.34;;;8.23;100.00
28448;BME280;15675;52.870;-1.416;2023-02-16T01:32:41;101371.44;;;8.21;100.00
28448;BME280;15675;52.870;-1.416;2023-02-16T01:35:07;101362.56;;;8.46;100.00
28448;BME280;15675;52.870;-1.416;2023-02-16T01:37:33;101358.56;;;8.60;100.00
28448;BME280;15675;52.870;-1.416;2023-02-16T01:39:58;101353.66;;;8.35;100.00
28448;BME280;15675;52.870;-1.416;2023-02-16T01:42:34;101354.72;;;8.43;100.00
28448;BME280;15675;52.870;-1.416;2023-02-16T01:45:10;101348.00;;;8.50;100.00
28448;BME280;15675;52.870;-1.416;2023-02-16T01:47:45;101345.22;;;8.43;100.00
28448;BME280;15675;52.870;-1.416;2023-02-16T01:53:37;101327.72;;;8.32;100.00
28448;BME280;15675;52.870;-1.416;2023-02-16T01:56:02;101330.34;;;8.33;100.00
28448;BME280;15675;52.870;-1.416;2023-02-16T01:58:36;101328.56;;;8.30;100.00
28448;BME280;15675;52.870;-1.416;2023-02-16T02:03:34;101336.44;;;8.35;100.00
28448;BME280;15675;52.870;-1.416;2023-02-16T02:06:22;101338.91;;;8.30;100.00
28448;BME280;15675;52.870;-1.416;2023-02-16T02:09:00;101338.59;;;8.55;100.00
28448;BME280;15675;52.870;-1.416;2023-02-16T02:11:32;101337.63;;;8.48;100.00
28448;BME280;15675;52.870;-1.416;2023-02-16T02:14:39;101332.19;;;8.39;100.00
28448;BME280;15675;52.870;-1.416;2023-02-16T02:17:02;101324.78;;;8.53;100.00
28448;BME280;15675;52.870;-1.416;2023-02-16T02:19:30;101318.81;;;8.19;100.00
28448;BME280;15675;52.870;-1.416;2023-02-16T02:27:36;101312.34;;;8.38;100.00
28448;BME280;15675;52.870;-1.416;2023-02-16T02:33:00;101316.34;;;8.25;100.00
28448;BME280;15675;52.870;-1.416;2023-02-16T02:35:34;101303.53;;;8.28;100.00
28448;BME280;15675;52.870;-1.416;2023-02-16T02:38:25;101304.28;;;8.63;100.00
28448;BME280;15675;52.870;-1.416;2023-02-16T02:46:02;101292.19;;;8.23;100.00
28448;BME280;15675;52.870;-1.416;2023-02-16T02:48:32;101281.38;;;8.41;100.00
28448;BME280;15675;52.870;-1.416;2023-02-16T03:03:06;101274.25;;;8.72;100.00
28448;BME280;15675;52.870;-1.416;2023-02-16T03:05:34;101272.75;;;8.42;100.00
28448;BME280;15675;52.870;-1.416;2023-02-16T03:08:09;101267.47;;;8.36;100.00
28448;BME280;15675;52.870;-1.416;2023-02-16T03:10:52;101276.41;;;8.12;100.00
28448;BME280;15675;52.870;-1.416;2023-02-16T03:13:40;101257.13;;;8.36;100.00
28448;BME280;15675;52.870;-1.416;2023-02-16T03:16:12;101249.56;;;8.45;100.00
28448;BME280;15675;52.870;-1.416;2023-02-16T03:18:40;101241.25;;;8.20;100.00
28448;BME280;15675;52.870;-1.416;2023-02-16T03:21:26;101246.53;;;8.25;100.00
28448;BME280;15675;52.870;-1.416;2023-02-16T03:24:15;101236.47;;;8.39;100.00
28448;BME280;15675;52.870;-1.416;2023-02-16T03:27:02;101227.25;;;8.50;100.00
28448;BME280;15675;52.870;-1.416;2023-02-16T03:29:48;101221.56;;;8.25;100.00
28448;BME280;15675;52.870;-1.416;2023-02-16T03:32:16;101213.50;;;8.11;100.00
28448;BME280;15675;52.870;-1.416;2023-02-16T03:34:42;101208.38;;;8.15;100.00
28448;BME280;15675;52.870;-1.416;2023-02-16T03:37:07;101215.38;;;8.19;100.00
28448;BME280;15675;52.870;-1.416;2023-02-16T03:39:34;101210.69;;;8.43;100.00
28448;BME280;15675;52.870;-1.416;2023-02-16T03:42:21;101215.53;;;8.68;100.00
28448;BME280;15675;52.870;-1.416;2023-02-16T03:44:47;101213.47;;;8.50;100.00
28448;BME280;15675;52.870;-1.416;2023-02-16T03:47:12;101215.47;;;8.64;100.00
28448;BME280;15675;52.870;-1.416;2023-02-16T03:49:38;101199.28;;;8.76;100.00
28448;BME280;15675;52.870;-1.416;2023-02-16T03:52:04;101207.72;;;8.66;100.00
28448;BME280;15675;52.870;-1.416;2023-02-16T03:54:29;101204.28;;;8.66;100.00
28448;BME280;15675;52.870;-1.416;2023-02-16T03:56:54;101201.72;;;8.26;100.00
28448;BME280;15675;52.870;-1.416;2023-02-16T03:59:20;101197.22;;;8.57;100.00
28448;BME280;15675;52.870;-1.416;2023-02-16T04:01:46;101199.06;;;8.62;100.00
28448;BME280;15675;52.870;-1.416;2023-02-16T04:04:11;101192.78;;;8.98;100.00
28448;BME280;15675;52.870;-1.416;2023-02-16T04:06:39;101180.34;;;8.79;100.00
28448;BME280;15675;52.870;-1.416;2023-02-16T04:09:04;101192.34;;;8.72;100.00
28448;BME280;15675;52.870;-1.416;2023-02-16T04:11:30;101188.47;;;8.99;100.00
28448;BME280;15675;52.870;-1.416;2023-02-16T04:14:15;101187.66;;;9.02;100.00
28448;BME280;15675;52.870;-1.416;2023-02-16T04:16:40;101188.72;;;9.13;100.00
28448;BME280;15675;52.870;-1.416;2023-02-16T04:19:06;101182.13;;;8.81;100.00
28448;BME280;15675;52.870;-1.416;2023-02-16T04:21:32;101187.25;;;8.77;100.00
28448;BME280;15675;52.870;-1.416;2023-02-16T04:23:58;101180.66;;;8.96;100.00
28448;BME280;15675;52.870;-1.416;2023-02-16T04:26:24;101172.00;;;8.92;100.00
28448;BME280;15675;52.870;-1.416;2023-02-16T04:28:49;101178.78;;;8.87;100.00
28448;BME280;15675;52.870;-1.416;2023-02-16T04:31:15;101169.38;;;8.45;100.00
28448;BME280;15675;52.870;-1.416;2023-02-16T04:33:40;101173.72;;;8.48;100.00
28448;BME280;15675;52.870;-1.416;2023-02-16T04:36:07;101176.63;;;8.63;100.00
28448;BME280;15675;52.870;-1.416;2023-02-16T04:38:32;101165.59;;;8.73;100.00
28448;BME280;15675;52.870;-1.416;2023-02-16T04:40:58;101166.25;;;8.63;100.00
28448;BME280;15675;52.870;-1.416;2023-02-16T04:43:23;101158.47;;;9.10;100.00
28448;BME280;15675;52.870;-1.416;2023-02-16T04:45:49;101163.00;;;8.73;100.00
28448;BME280;15675;52.870;-1.416;2023-02-16T04:48:14;101160.38;;;8.72;100.00
28448;BME280;15675;52.870;-1.416;2023-02-16T04:50:40;101149.97;;;8.69;100.00
28448;BME280;15675;52.870;-1.416;2023-02-16T04:53:06;101160.63;;;8.86;100.00
28448;BME280;15675;52.870;-1.416;2023-02-16T04:55:31;101164.88;;;8.38;100.00
28448;BME280;15675;52.870;-1.416;2023-02-16T04:57:57;101156.78;;;8.63;100.00
28448;BME280;15675;52.870;-1.416;2023-02-16T05:00:22;101149.63;;;8.49;100.00
28448;BME280;15675;52.870;-1.416;2023-02-16T05:02:48;101149.72;;;8.55;100.00
28448;BME280;15675;52.870;-1.416;2023-02-16T05:05:14;101141.44;;;8.73;100.00
28448;BME280;15675;52.870;-1.416;2023-02-16T05:07:39;101146.72;;;8.79;100.00
28448;BME280;15675;52.870;-1.416;2023-02-16T05:10:05;101149.06;;;8.65;100.00
28448;BME280;15675;52.870;-1.416;2023-02-16T05:12:31;101139.28;;;8.50;100.00
28448;BME280;15675;52.870;-1.416;2023-02-16T05:15:15;101133.94;;;8.42;100.00
28448;BME280;15675;52.870;-1.416;2023-02-16T05:17:41;101136.25;;;8.73;100.00
28448;BME280;15675;52.870;-1.416;2023-02-16T05:20:07;101113.16;;;8.84;100.00
28448;BME280;15675;52.870;-1.416;2023-02-16T05:22:32;101108.28;;;8.53;100.00
28448;BME280;15675;52.870;-1.416;2023-02-16T05:24:59;101111.91;;;8.63;100.00
28448;BME280;15675;52.870;-1.416;2023-02-16T05:27:27;101110.81;;;8.49;100.00
28448;BME280;15675;52.870;-1.416;2023-02-16T05:29:52;101097.63;;;8.38;100.00
28448;BME280;15675;52.870;-1.416;2023-02-16T05:32:19;101096.41;;;8.64;100.00
28448;BME280;15675;52.870;-1.416;2023-02-16T05:34:44;101098.59;;;8.43;100.00
28448;BME280;15675;52.870;-1.416;2023-02-16T05:37:11;101090.06;;;8.45;100.00
28448;BME280;15675;52.870;-1.416;2023-02-16T05:39:37;101088.38;;;8.49;100.00
28448;BME280;15675;52.870;-1.416;2023-02-16T05:42:03;101081.59;;;8.54;100.00
28448;BME280;15675;52.870;-1.416;2023-02-16T05:44:29;101078.94;;;8.51;100.00
28448;BME280;15675;52.870;-1.416;2023-02-16T05:46:54;101079.72;;;8.45;100.00
28448;BME280;15675;52.870;-1.416;2023-02-16T05:49:20;101073.78;;;8.51;100.00
28448;BME280;15675;52.870;-1.416;2023-02-16T05:51:45;101071.66;;;8.32;100.00
28448;BME280;15675;52.870;-1.416;2023-02-16T05:54:11;101077.47;;;8.20;100.00
28448;BME280;15675;52.870;-1.416;2023-02-16T05:56:50;101066.50;;;8.33;100.00
28448;BME280;15675;52.870;-1.416;2023-02-16T05:59:16;101061.69;;;8.06;100.00
28448;BME280;15675;52.870;-1.416;2023-02-16T06:01:42;101062.69;;;8.12;100.00
28448;BME280;15675;52.870;-1.416;2023-02-16T06:04:12;101059.91;;;8.49;100.00
28448;BME280;15675;52.870;-1.416;2023-02-16T06:06:39;101058.66;;;8.27;100.00
28448;BME280;15675;52.870;-1.416;2023-02-16T06:09:07;101059.56;;;8.30;100.00
28448;BME280;15675;52.870;-1.416;2023-02-16T06:11:33;101055.25;;;8.29;100.00
28448;BME280;15675;52.870;-1.416;2023-02-16T06:14:10;101068.09;;;8.26;100.00
28448;BME280;15675;52.870;-1.416;2023-02-16T06:16:38;101056.69;;;8.15;100.00
28448;BME280;15675;52.870;-1.416;2023-02-16T06:19:05;101062.38;;;8.43;100.00
28448;BME280;15675;52.870;-1.416;2023-02-16T06:21:31;101067.84;;;8.57;100.00
28448;BME280;15675;52.870;-1.416;2023-02-16T06:23:57;101069.06;;;8.32;100.00
28448;BME280;15675;52.870;-1.416;2023-02-16T06:26:23;101059.84;;;8.44;100.00
28448;BME280;15675;52.870;-1.416;2023-02-16T06:28:48;101063.06;;;8.33;100.00
28448;BME280;15675;52.870;-1.416;2023-02-16T06:31:14;101063.38;;;8.48;100.00
28448;BME280;15675;52.870;-1.416;2023-02-16T06:33:40;101061.41;;;8.38;100.00
28448;BME280;15675;52.870;-1.416;2023-02-16T06:36:06;101059.72;;;8.38;100.00
28448;BME280;15675;52.870;-1.416;2023-02-16T06:38:31;101062.03;;;8.24;100.00
28448;BME280;15675;52.870;-1.416;2023-02-16T06:40:57;101069.56;;;8.12;100.00
28448;BME280;15675;52.870;-1.416;2023-02-16T06:43:22;101071.47;;;8.67;100.00
28448;BME280;15675;52.870;-1.416;2023-02-16T06:45:48;101067.56;;;8.43;100.00
28448;BME280;15675;52.870;-1.416;2023-02-16T06:48:13;101064.22;;;8.47;100.00
28448;BME280;15675;52.870;-1.416;2023-02-16T06:50:39;101063.53;;;8.57;100.00
28448;BME280;15675;52.870;-1.416;2023-02-16T06:53:05;101069.66;;;8.62;100.00
28448;BME280;15675;52.870;-1.416;2023-02-16T06:55:30;101068.75;;;8.62;100.00
28448;BME280;15675;52.870;-1.416;2023-02-16T06:58:02;101074.72;;;8.58;100.00
28448;BME280;15675;52.870;-1.416;2023-02-16T07:00:27;101075.38;;;8.46;100.00
28448;BME280;15675;52.870;-1.416;2023-02-16T07:02:54;101064.53;;;8.20;100.00
28448;BME280;15675;52.870;-1.416;2023-02-16T07:05:20;101076.38;;;8.53;100.00
28448;BME280;15675;52.870;-1.416;2023-02-16T07:07:46;101078.34;;;8.68;100.00
28448;BME280;15675;52.870;-1.416;2023-02-16T07:10:11;101078.75;;;8.43;100.00
28448;BME280;15675;52.870;-1.416;2023-02-16T07:12:37;101073.31;;;8.75;100.00
28448;BME280;15675;52.870;-1.416;2023-02-16T07:15:03;101071.59;;;8.76;100.00
28448;BME280;15675;52.870;-1.416;2023-02-16T07:17:29;101071.75;;;8.84;100.00
28448;BME280;15675;52.870;-1.416;2023-02-16T07:19:54;101076.25;;;8.95;100.00
28448;BME280;15675;52.870;-1.416;2023-02-16T07:22:19;101078.81;;;8.94;100.00
28448;BME280;15675;52.870;-1.416;2023-02-16T07:24:45;101089.19;;;8.95;100.00
28448;BME280;15675;52.870;-1.416;2023-02-16T07:27:11;101089.09;;;8.89;100.00
28448;BME280;15675;52.870;-1.416;2023-02-16T07:29:36;101075.41;;;8.98;100.00
28448;BME280;15675;52.870;-1.416;2023-02-16T07:32:02;101085.66;;;8.92;100.00
28448;BME280;15675;52.870;-1.416;2023-02-16T07:34:28;101077.22;;;9.02;100.00
28448;BME280;15675;52.870;-1.416;2023-02-16T07:36:53;101082.59;;;9.16;100.00
28448;BME280;15675;52.870;-1.416;2023-02-16T07:39:19;101077.22;;;9.02;100.00
28448;BME280;15675;52.870;-1.416;2023-02-16T07:41:44;101067.50;;;8.90;100.00
28448;BME280;15675;52.870;-1.416;2023-02-16T07:44:10;101054.44;;;8.81;100.00
28448;BME280;15675;52.870;-1.416;2023-02-16T07:46:35;101069.41;;;9.01;100.00
28448;BME280;15675;52.870;-1.416;2023-02-16T07:49:01;101077.06;;;8.94;100.00
28448;BME280;15675;52.870;-1.416;2023-02-16T07:51:29;101072.44;;;8.75;100.00
28448;BME280;15675;52.870;-1.416;2023-02-16T07:53:55;101075.34;;;8.95;100.00
28448;BME280;15675;52.870;-1.416;2023-02-16T07:56:24;101075.53;;;9.06;100.00
28448;BME280;15675;52.870;-1.416;2023-02-16T07:58:51;101076.31;;;9.02;100.00
28448;BME280;15675;52.870;-1.416;2023-02-16T08:01:17;101070.69;;;9.29;100.00
28448;BME280;15675;52.870;-1.416;2023-02-16T08:03:43;101078.53;;;9.32;100.00
28448;BME280;15675;52.870;-1.416;2023-02-16T08:06:09;101074.13;;;9.26;100.00
28448;BME280;15675;52.870;-1.416;2023-02-16T08:08:35;101068.22;;;9.37;100.00
28448;BME280;15675;52.870;-1.416;2023-02-16T08:11:14;101070.84;;;9.40;100.00
28448;BME280;15675;52.870;-1.416;2023-02-16T08:13:40;101074.31;;;9.42;100.00
28448;BME280;15675;52.870;-1.416;2023-02-16T08:16:14;101076.66;;;9.23;100.00
28448;BME280;15675;52.870;-1.416;2023-02-16T08:18:40;101079.66;;;9.53;100.00
28448;BME280;15675;52.870;-1.416;2023-02-16T08:21:14;101069.28;;;9.51;100.00
28448;BME280;15675;52.870;-1.416;2023-02-16T08:23:41;101078.75;;;9.49;100.00
28448;BME280;15675;52.870;-1.416;2023-02-16T08:26:09;101076.88;;;9.39;100.00
28448;BME280;15675;52.870;-1.416;2023-02-16T08:28:35;101080.50;;;9.52;100.00
28448;BME280;15675;52.870;-1.416;2023-02-16T08:31:03;101078.06;;;9.62;100.00
28448;BME280;15675;52.870;-1.416;2023-02-16T08:33:29;101079.00;;;9.67;100.00
28448;BME280;15675;52.870;-1.416;2023-02-16T08:35:55;101077.47;;;9.82;100.00
28448;BME280;15675;52.870;-1.416;2023-02-16T08:38:21;101093.72;;;9.70;100.00
28448;BME280;15675;52.870;-1.416;2023-02-16T08:40:47;101098.91;;;9.72;100.00
28448;BME280;15675;52.870;-1.416;2023-02-16T08:43:13;101099.91;;;9.81;100.00
28448;BME280;15675;52.870;-1.416;2023-02-16T08:45:45;101100.03;;;9.91;100.00
28448;BME280;15675;52.870;-1.416;2023-02-16T08:48:12;101100.19;;;10.05;100.00
28448;BME280;15675;52.870;-1.416;2023-02-16T08:50:42;101097.56;;;10.01;100.00
28448;BME280;15675;52.870;-1.416;2023-02-16T08:53:11;101089.34;;;9.67;100.00
28448;BME280;15675;52.870;-1.416;2023-02-16T08:55:37;101098.22;;;9.82;100.00
28448;BME280;15675;52.870;-1.416;2023-02-16T08:58:03;101093.13;;;9.93;100.00
28448;BME280;15675;52.870;-1.416;2023-02-16T09:00:30;101105.16;;;9.86;100.00
28448;BME280;15675;52.870;-1.416;2023-02-16T09:02:59;101100.13;;;9.98;100.00
28448;BME280;15675;52.870;-1.416;2023-02-16T09:05:25;101086.34;;;10.02;100.00
28448;BME280;15675;52.870;-1.416;2023-02-16T09:07:52;101088.19;;;10.14;100.00
28448;BME280;15675;52.870;-1.416;2023-02-16T09:10:18;101086.56;;;10.23;100.00
28448;BME280;15675;52.870;-1.416;2023-02-16T09:12:46;101090.81;;;10.17;100.00
28448;BME280;15675;52.870;-1.416;2023-02-16T09:15:14;101095.97;;;10.13;100.00
28448;BME280;15675;52.870;-1.416;2023-02-16T09:17:41;101085.09;;;10.43;100.00
28448;BME280;15675;52.870;-1.416;2023-02-16T09:20:08;101088.44;;;10.34;100.00
28448;BME280;15675;52.870;-1.416;2023-02-16T09:22:33;101090.97;;;10.31;100.00
28448;BME280;15675;52.870;-1.416;2023-02-16T09:24:59;101084.06;;;10.30;100.00
28448;BME280;15675;52.870;-1.416;2023-02-16T09:27:25;101086.84;;;10.47;100.00
28448;BME280;15675;52.870;-1.416;2023-02-16T09:29:51;101085.94;;;10.42;100.00
28448;BME280;15675;52.870;-1.416;2023-02-16T09:32:17;101090.41;;;10.57;100.00
28448;BME280;15675;52.870;-1.416;2023-02-16T09:34:43;101106.50;;;10.27;100.00
28448;BME280;15675;52.870;-1.416;2023-02-16T09:37:14;101106.78;;;10.50;100.00
28448;BME280;15675;52.870;-1.416;2023-02-16T09:39:40;101106.88;;;10.59;100.00
28448;BME280;15675;52.870;-1.416;2023-02-16T09:42:43;101095.75;;;10.71;100.00
28448;BME280;15675;52.870;-1.416;2023-02-16T09:45:14;101103.50;;;10.68;100.00
28448;BME280;15675;52.870;-1.416;2023-02-16T09:47:44;101100.06;;;10.70;100.00
28448;BME280;15675;52.870;-1.416;2023-02-16T09:50:16;101103.50;;;10.68;100.00
28448;BME280;15675;52.870;-1.416;2023-02-16T09:55:16;101110.19;;;10.44;100.00
28448;BME280;15675;52.870;-1.416;2023-02-16T09:57:53;101125.97;;;10.66;100.00
28448;BME280;15675;52.870;-1.416;2023-02-16T10:08:49;101104.44;;;10.73;100.00
28448;BME280;15675;52.870;-1.416;2023-02-16T10:11:26;101120.75;;;10.61;100.00
28448;BME280;15675;52.870;-1.416;2023-02-16T10:19:52;101109.00;;;11.03;100.00
28448;BME280;15675;52.870;-1.416;2023-02-16T10:22:37;101111.50;;;10.93;100.00
28448;BME280;15675;52.870;-1.416;2023-02-16T10:25:11;101111.50;;;10.93;100.00
28448;BME280;15675;52.870;-1.416;2023-02-16T10:27:42;101116.69;;;10.91;100.00
28448;BME280;15675;52.870;-1.416;2023-02-16T10:30:21;101118.41;;;10.89;100.00
28448;BME280;15675;52.870;-1.416;2023-02-16T10:32:58;101121.00;;;10.89;100.00
28448;BME280;15675;52.870;-1.416;2023-02-16T10:38:08;101122.13;;;11.22;100.00
28448;BME280;15675;52.870;-1.416;2023-02-16T10:40:59;101122.13;;;11.17;100.00
28448;BME280;15675;52.870;-1.416;2023-02-16T10:43:45;101126.28;;;11.00;100.00
28448;BME280;15675;52.870;-1.416;2023-02-16T10:46:24;101117.69;;;11.07;100.00
28448;BME280;15675;52.870;-1.416;2023-02-16T10:48:52;101114.34;;;11.25;100.00
28448;BME280;15675;52.870;-1.416;2023-02-16T10:51:20;101111.88;;;11.40;100.00
28448;BME280;15675;52.870;-1.416;2023-02-16T10:54:41;101118.84;;;11.49;100.00
28448;BME280;15675;52.870;-1.416;2023-02-16T10:57:02;101113.63;;;11.42;100.00
28448;BME280;15675;52.870;-1.416;2023-02-16T10:59:30;101097.97;;;11.37;100.00
28448;BME280;15675;52.870;-1.416;2023-02-16T11:01:59;101107.63;;;11.53;100.00
28448;BME280;15675;52.870;-1.416;2023-02-16T11:09:28;101095.44;;;11.45;100.00
28448;BME280;15675;52.870;-1.416;2023-02-16T11:11:53;101093.94;;;11.90;100.00
28448;BME280;15675;52.870;-1.416;2023-02-16T11:14:24;101094.75;;;11.81;100.00
28448;BME280;15675;52.870;-1.416;2023-02-16T11:17:22;101088.84;;;12.18;100.00
28448;BME280;15675;52.870;-1.416;2023-02-16T11:20:07;101098.28;;;11.94;100.00
28448;BME280;15675;52.870;-1.416;2023-02-16T11:22:36;101090.56;;;12.09;100.00
28448;BME280;15675;52.870;-1.416;2023-02-16T11:27:59;101086.19;;;12.04;100.00
28448;BME280;15675;52.870;-1.416;2023-02-16T11:30:40;101080.91;;;11.87;100.00
28448;BME280;15675;52.870;-1.416;2023-02-16T11:33:24;101070.59;;;12.02;100.00
28448;BME280;15675;52.870;-1.416;2023-02-16T11:35:51;101078.28;;;11.78;100.00
28448;BME280;15675;52.870;-1.416;2023-02-16T11:38:35;101080.13;;;11.96;100.00
28448;BME280;15675;52.870;-1.416;2023-02-16T11:41:04;101087.03;;;11.97;100.00
28448;BME280;15675;52.870;-1.416;2023-02-16T11:43:34;101096.59;;;12.05;100.00
28448;BME280;15675;52.870;-1.416;2023-02-16T11:46:01;101095.72;;;11.96;100.00
28448;BME280;15675;52.870;-1.416;2023-02-16T11:48:32;101094.91;;;12.17;100.00
28448;BME280;15675;52.870;-1.416;2023-02-16T11:51:07;101092.31;;;12.12;100.00
28448;BME280;15675;52.870;-1.416;2023-02-16T11:53:35;101108.81;;;12.30;100.00
28448;BME280;15675;52.870;-1.416;2023-02-16T11:58:38;101090.53;;;12.05;100.00
28448;BME280;15675;52.870;-1.416;2023-02-16T12:07:28;101110.63;;;12.48;100.00
28448;BME280;15675;52.870;-1.416;2023-02-16T12:10:07;101108.91;;;12.54;100.00
28448;BME280;15675;52.870;-1.416;2023-02-16T12:12:51;101112.31;;;12.42;100.00
28448;BME280;15675;52.870;-1.416;2023-02-16T12:18:37;101092.44;;;12.75;100.00
28448;BME280;15675;52.870;-1.416;2023-02-16T12:21:15;101090.69;;;12.59;100.00
28448;BME280;15675;52.870;-1.416;2023-02-16T12:26:47;101088.09;;;12.74;100.00
28448;BME280;15675;52.870;-1.416;2023-02-16T12:32:19;101091.56;;;12.64;100.00
28448;BME280;15675;52.870;-1.416;2023-02-16T12:43:44;101087.22;;;12.75;100.00
28448;BME280;15675;52.870;-1.416;2023-02-16T12:46:30;101085.47;;;12.62;100.00
28448;BME280;15675;52.870;-1.416;2023-02-16T12:49:20;101089.81;;;13.02;100.00
28448;BME280;15675;52.870;-1.416;2023-02-16T12:55:24;101077.66;;;12.99;100.00
28448;BME280;15675;52.870;-1.416;2023-02-16T13:00:41;101067.22;;;13.11;100.00
28448;BME280;15675;52.870;-1.416;2023-02-16T13:05:42;101066.38;;;12.85;100.00
28448;BME280;15675;52.870;-1.416;2023-02-16T13:08:19;101079.41;;;12.83;100.00
28448;BME280;15675;52.870;-1.416;2023-02-16T13:13:15;101077.66;;;12.93;100.00
28448;BME280;15675;52.870;-1.416;2023-02-16T13:15:49;101071.59;;;13.00;100.00
28448;BME280;15675;52.870;-1.416;2023-02-16T13:18:31;101074.16;;;13.09;100.00
28448;BME280;15675;52.870;-1.416;2023-02-16T13:21:01;101070.69;;;13.35;100.00
28448;BME280;15675;52.870;-1.416;2023-02-16T13:46:01;101046.38;;;13.18;100.00
28448;BME280;15675;52.870;-1.416;2023-02-16T13:48:37;101052.44;;;13.26;100.00
28448;BME280;15675;52.870;-1.416;2023-02-16T13:51:08;101055.91;;;13.37;100.00
28448;BME280;15675;52.870;-1.416;2023-02-16T13:53:37;101051.56;;;13.35;100.00
28448;BME280;15675;52.870;-1.416;2023-02-16T13:56:13;101055.91;;;13.34;100.00
28448;BME280;15675;52.870;-1.416;2023-02-16T13:58:39;101061.97;;;13.50;100.00
28448;BME280;15675;52.870;-1.416;2023-02-16T14:01:32;101060.16;;;13.75;100.00
28448;BME280;15675;52.870;-1.416;2023-02-16T14:03:59;101058.38;;;13.79;100.00
28448;BME280;15675;52.870;-1.416;2023-02-16T14:06:30;101044.41;;;13.91;100.00
28448;BME280;15675;52.870;-1.416;2023-02-16T14:16:49;101055.81;;;13.67;100.00
28448;BME280;15675;52.870;-1.416;2023-02-16T14:19:23;101054.03;;;13.75;100.00
28448;BME280;15675;52.870;-1.416;2023-02-16T14:21:51;101049.72;;;13.69;100.00
28448;BME280;15675;52.870;-1.416;2023-02-16T14:24:30;101045.22;;;14.01;100.00
28448;BME280;15675;52.870;-1.416;2023-02-16T14:27:03;101040.03;;;13.99;100.00
28448;BME280;15675;52.870;-1.416;2023-02-16T14:29:36;101042.63;;;14.01;100.00
28448;BME280;15675;52.870;-1.416;2023-02-16T14:35:03;101041.81;;;13.86;100.00
28448;BME280;15675;52.870;-1.416;2023-02-16T14:40:29;101036.56;;;13.98;100.00
28448;BME280;15675;52.870;-1.416;2023-02-16T14:43:11;101042.59;;;14.10;100.00
28448;BME280;15675;52.870;-1.416;2023-02-16T14:56:29;101041.00;;;13.76;100.00
28448;BME280;15675;52.870;-1.416;2023-02-16T15:01:42;101059.94;;;14.15;100.00
28448;BME280;15675;52.870;-1.416;2023-02-16T15:04:10;101064.19;;;14.37;100.00
28448;BME280;15675;52.870;-1.416;2023-02-16T15:06:39;101060.03;;;14.00;100.00
28448;BME280;15675;52.870;-1.416;2023-02-16T15:09:25;101053.06;;;13.99;100.00
28448;BME280;15675;52.870;-1.416;2023-02-16T15:11:57;101045.28;;;13.94;100.00
28448;BME280;15675;52.870;-1.416;2023-02-16T15:17:34;101038.19;;;14.17;100.00
28448;BME280;15675;52.870;-1.416;2023-02-16T15:20:31;101030.22;;;14.33;100.00
28448;BME280;15675;52.870;-1.416;2023-02-16T15:23:04;101020.94;;;13.89;100.00
28448;BME280;15675;52.870;-1.416;2023-02-16T15:25:35;101031.28;;;14.05;100.00
28448;BME280;15675;52.870;-1.416;2023-02-16T15:30:39;101021.78;;;13.94;100.00
28448;BME280;15675;52.870;-1.416;2023-02-16T15:33:12;101026.06;;;14.06;100.00